sensor_id;sensor_type;location;lat;lon;timestamp;P1;durP1;ratioP1;P2;durP2;ratioP2
17943;SDS011;9097;47.028;15.444;2022-07-24T00:00:02;1.35;;;1.23;;
17943;SDS011;9097;47.028;15.444;2022-07-24T00:03:04;1.63;;;1.30;;
17943;SDS011;9097;47.028;15.444;2022-07-24T00:06:07;1.48;;;1.10;;
17943;SDS011;9097;47.028;15.444;2022-07-24T00:09:16;3.85;;;1.73;;
17943;SDS011;9097;47.028;15.444;2022-07-24T00:12:20;1.60;;;1.08;;
17943;SDS011;9097;47.028;15.444;2022-07-24T00:15:25;2.78;;;1.35;;
17943;SDS011;9097;47.028;15.444;2022-07-24T00:18:28;1.60;;;1.10;;
17943;SDS011;9097;47.028;15.444;2022-07-24T00:21:33;0.77;;;0.75;;
17943;SDS011;9097;47.028;15.444;2022-07-24T00:24:37;2.33;;;1.20;;
17943;SDS011;9097;47.028;15.444;2022-07-24T00:27:40;1.58;;;0.93;;
17943;SDS011;9097;47.028;15.444;2022-07-24T00:30:44;1.65;;;1.20;;
17943;SDS011;9097;47.028;15.444;2022-07-24T00:33:49;1.05;;;0.90;;
17943;SDS011;9097;47.028;15.444;2022-07-24T00:40:00;1.50;;;1.20;;
17943;SDS011;9097;47.028;15.444;2022-07-24T00:43:03;1.52;;;1.00;;
17943;SDS011;9097;47.028;15.444;2022-07-24T00:46:15;2.63;;;0.80;;
17943;SDS011;9097;47.028;15.444;2022-07-24T00:49:20;3.38;;;1.40;;
17943;SDS011;9097;47.028;15.444;2022-07-24T00:52:23;3.10;;;1.20;;
17943;SDS011;9097;47.028;15.444;2022-07-24T00:55:28;1.40;;;1.20;;
17943;SDS011;9097;47.028;15.444;2022-07-24T00:58:44;1.55;;;1.25;;
17943;SDS011;9097;47.028;15.444;2022-07-24T01:01:51;2.17;;;1.48;;
17943;SDS011;9097;47.028;15.444;2022-07-24T01:04:53;1.73;;;1.25;;
17943;SDS011;9097;47.028;15.444;2022-07-24T01:08:04;1.40;;;1.30;;
17943;SDS011;9097;47.028;15.444;2022-07-24T01:11:07;1.42;;;1.02;;
17943;SDS011;9097;47.028;15.444;2022-07-24T01:14:10;1.65;;;1.00;;
17943;SDS011;9097;47.028;15.444;2022-07-24T01:17:14;1.77;;;1.13;;
17943;SDS011;9097;47.028;15.444;2022-07-24T01:20:17;2.05;;;1.17;;
17943;SDS011;9097;47.028;15.444;2022-07-24T01:23:22;1.92;;;1.27;;
17943;SDS011;9097;47.028;15.444;2022-07-24T01:26:25;2.28;;;1.17;;
17943;SDS011;9097;47.028;15.444;2022-07-24T01:29:28;1.63;;;1.10;;
17943;SDS011;9097;47.028;15.444;2022-07-24T01:32:31;3.80;;;1.60;;
17943;SDS011;9097;47.028;15.444;2022-07-24T01:35:34;2.35;;;1.90;;
17943;SDS011;9097;47.028;15.444;2022-07-24T01:38:38;1.20;;;1.10;;
17943;SDS011;9097;47.028;15.444;2022-07-24T01:41:40;1.52;;;1.33;;
17943;SDS011;9097;47.028;15.444;2022-07-24T01:44:43;2.60;;;1.52;;
17943;SDS011;9097;47.028;15.444;2022-07-24T01:47:46;2.28;;;1.65;;
17943;SDS011;9097;47.028;15.444;2022-07-24T01:50:49;2.10;;;1.50;;
17943;SDS011;9097;47.028;15.444;2022-07-24T01:53:53;2.70;;;1.42;;
17943;SDS011;9097;47.028;15.444;2022-07-24T01:56:55;3.63;;;2.00;;
17943;SDS011;9097;47.028;15.444;2022-07-24T01:59:58;2.70;;;1.33;;
17943;SDS011;9097;47.028;15.444;2022-07-24T02:03:01;2.17;;;1.48;;
17943;SDS011;9097;47.028;15.444;2022-07-24T02:06:04;2.25;;;1.35;;
17943;SDS011;9097;47.028;15.444;2022-07-24T02:09:08;2.45;;;1.38;;
17943;SDS011;9097;47.028;15.444;2022-07-24T02:12:11;1.92;;;1.45;;
17943;SDS011;9097;47.028;15.444;2022-07-24T02:15:14;2.75;;;1.55;;
17943;SDS011;9097;47.028;15.444;2022-07-24T02:18:17;2.33;;;1.55;;
17943;SDS011;9097;47.028;15.444;2022-07-24T02:21:20;1.60;;;1.25;;
17943;SDS011;9097;47.028;15.444;2022-07-24T02:24:24;8.15;;;2.10;;
17943;SDS011;9097;47.028;15.444;2022-07-24T02:27:26;1.92;;;1.33;;
17943;SDS011;9097;47.028;15.444;2022-07-24T02:30:29;1.92;;;1.00;;
17943;SDS011;9097;47.028;15.444;2022-07-24T02:33:32;3.65;;;1.50;;
17943;SDS011;9097;47.028;15.444;2022-07-24T02:36:35;3.40;;;2.00;;
17943;SDS011;9097;47.028;15.444;2022-07-24T02:39:39;3.08;;;1.67;;
17943;SDS011;9097;47.028;15.444;2022-07-24T02:42:42;4.00;;;2.13;;
17943;SDS011;9097;47.028;15.444;2022-07-24T02:45:44;4.40;;;1.80;;
17943;SDS011;9097;47.028;15.444;2022-07-24T02:48:47;7.20;;;2.13;;
17943;SDS011;9097;47.028;15.444;2022-07-24T02:51:50;3.55;;;1.63;;
17943;SDS011;9097;47.028;15.444;2022-07-24T02:54:54;2.33;;;1.75;;
17943;SDS011;9097;47.028;15.444;2022-07-24T02:57:56;2.90;;;2.00;;
17943;SDS011;9097;47.028;15.444;2022-07-24T03:00:59;2.70;;;2.08;;
17943;SDS011;9097;47.028;15.444;2022-07-24T03:04:02;3.70;;;2.25;;
17943;SDS011;9097;47.028;15.444;2022-07-24T03:07:05;2.83;;;2.08;;
17943;SDS011;9097;47.028;15.444;2022-07-24T03:10:11;4.18;;;2.50;;
17943;SDS011;9097;47.028;15.444;2022-07-24T03:13:13;3.47;;;2.20;;
17943;SDS011;9097;47.028;15.444;2022-07-24T03:16:17;2.80;;;2.03;;
17943;SDS011;9097;47.028;15.444;2022-07-24T03:19:19;4.53;;;1.58;;
17943;SDS011;9097;47.028;15.444;2022-07-24T03:22:22;3.47;;;2.17;;
17943;SDS011;9097;47.028;15.444;2022-07-24T03:25:26;4.10;;;1.90;;
17943;SDS011;9097;47.028;15.444;2022-07-24T03:28:29;6.38;;;2.47;;
17943;SDS011;9097;47.028;15.444;2022-07-24T03:31:35;6.25;;;2.60;;
17943;SDS011;9097;47.028;15.444;2022-07-24T03:34:40;4.72;;;2.15;;
17943;SDS011;9097;47.028;15.444;2022-07-24T03:37:43;4.50;;;1.85;;
17943;SDS011;9097;47.028;15.444;2022-07-24T03:40:47;4.60;;;2.20;;
17943;SDS011;9097;47.028;15.444;2022-07-24T03:43:50;3.40;;;1.63;;
17943;SDS011;9097;47.028;15.444;2022-07-24T03:46:52;4.78;;;2.47;;
17943;SDS011;9097;47.028;15.444;2022-07-24T03:49:56;3.88;;;2.53;;
17943;SDS011;9097;47.028;15.444;2022-07-24T03:52:59;2.72;;;1.77;;
17943;SDS011;9097;47.028;15.444;2022-07-24T03:56:05;3.10;;;1.83;;
17943;SDS011;9097;47.028;15.444;2022-07-24T03:59:08;2.58;;;1.77;;
17943;SDS011;9097;47.028;15.444;2022-07-24T04:02:12;3.70;;;2.55;;
17943;SDS011;9097;47.028;15.444;2022-07-24T04:05:16;3.30;;;2.65;;
17943;SDS011;9097;47.028;15.444;2022-07-24T04:08:19;4.03;;;2.30;;
17943;SDS011;9097;47.028;15.444;2022-07-24T04:11:23;12.38;;;2.65;;
17943;SDS011;9097;47.028;15.444;2022-07-24T04:14:26;4.05;;;2.38;;
17943;SDS011;9097;47.028;15.444;2022-07-24T04:17:28;5.72;;;2.55;;
17943;SDS011;9097;47.028;15.444;2022-07-24T04:20:31;4.40;;;2.63;;
17943;SDS011;9097;47.028;15.444;2022-07-24T04:23:34;6.00;;;2.53;;
17943;SDS011;9097;47.028;15.444;2022-07-24T04:26:38;7.35;;;2.40;;
17943;SDS011;9097;47.028;15.444;2022-07-24T04:29:42;5.10;;;2.22;;
17943;SDS011;9097;47.028;15.444;2022-07-24T04:32:44;5.65;;;2.22;;
17943;SDS011;9097;47.028;15.444;2022-07-24T04:35:47;6.30;;;3.03;;
17943;SDS011;9097;47.028;15.444;2022-07-24T04:38:50;4.18;;;2.47;;
17943;SDS011;9097;47.028;15.444;2022-07-24T04:41:55;5.07;;;3.03;;
17943;SDS011;9097;47.028;15.444;2022-07-24T04:44:57;3.88;;;2.47;;
17943;SDS011;9097;47.028;15.444;2022-07-24T04:48:01;7.45;;;2.85;;
17943;SDS011;9097;47.028;15.444;2022-07-24T04:51:04;2.67;;;2.05;;
17943;SDS011;9097;47.028;15.444;2022-07-24T04:54:07;8.70;;;2.90;;
17943;SDS011;9097;47.028;15.444;2022-07-24T04:57:11;4.60;;;3.03;;
17943;SDS011;9097;47.028;15.444;2022-07-24T05:00:14;4.53;;;2.70;;
17943;SDS011;9097;47.028;15.444;2022-07-24T05:03:17;2.85;;;2.00;;
17943;SDS011;9097;47.028;15.444;2022-07-24T05:06:22;5.15;;;2.67;;
17943;SDS011;9097;47.028;15.444;2022-07-24T05:09:32;6.07;;;2.80;;
17943;SDS011;9097;47.028;15.444;2022-07-24T05:12:41;5.00;;;2.72;;
17943;SDS011;9097;47.028;15.444;2022-07-24T05:15:44;5.78;;;2.97;;
17943;SDS011;9097;47.028;15.444;2022-07-24T05:18:47;5.68;;;3.33;;
17943;SDS011;9097;47.028;15.444;2022-07-24T05:21:49;3.95;;;2.67;;
17943;SDS011;9097;47.028;15.444;2022-07-24T05:24:52;5.75;;;2.35;;
17943;SDS011;9097;47.028;15.444;2022-07-24T05:27:57;7.43;;;3.63;;
17943;SDS011;9097;47.028;15.444;2022-07-24T05:31:00;8.65;;;3.13;;
17943;SDS011;9097;47.028;15.444;2022-07-24T05:34:03;4.93;;;3.00;;
17943;SDS011;9097;47.028;15.444;2022-07-24T05:37:06;4.72;;;2.72;;
17943;SDS011;9097;47.028;15.444;2022-07-24T05:40:09;6.00;;;2.72;;
17943;SDS011;9097;47.028;15.444;2022-07-24T05:43:14;5.10;;;3.10;;
17943;SDS011;9097;47.028;15.444;2022-07-24T05:46:17;3.03;;;2.08;;
17943;SDS011;9097;47.028;15.444;2022-07-24T05:49:20;6.80;;;2.92;;
17943;SDS011;9097;47.028;15.444;2022-07-24T05:52:22;4.18;;;2.78;;
17943;SDS011;9097;47.028;15.444;2022-07-24T05:55:25;3.75;;;2.90;;
17943;SDS011;9097;47.028;15.444;2022-07-24T05:58:30;3.08;;;2.45;;
17943;SDS011;9097;47.028;15.444;2022-07-24T06:01:33;4.00;;;2.40;;
17943;SDS011;9097;47.028;15.444;2022-07-24T06:04:37;3.33;;;2.13;;
17943;SDS011;9097;47.028;15.444;2022-07-24T06:07:42;6.07;;;2.85;;
17943;SDS011;9097;47.028;15.444;2022-07-24T06:10:45;4.03;;;2.35;;
17943;SDS011;9097;47.028;15.444;2022-07-24T06:13:51;3.75;;;2.70;;
17943;SDS011;9097;47.028;15.444;2022-07-24T06:16:54;5.07;;;2.58;;
17943;SDS011;9097;47.028;15.444;2022-07-24T06:19:57;4.88;;;3.42;;
17943;SDS011;9097;47.028;15.444;2022-07-24T06:22:59;5.85;;;2.75;;
17943;SDS011;9097;47.028;15.444;2022-07-24T06:26:04;3.80;;;2.75;;
17943;SDS011;9097;47.028;15.444;2022-07-24T06:29:23;4.35;;;2.72;;
17943;SDS011;9097;47.028;15.444;2022-07-24T06:32:26;2.80;;;2.10;;
17943;SDS011;9097;47.028;15.444;2022-07-24T06:35:29;5.00;;;3.20;;
17943;SDS011;9097;47.028;15.444;2022-07-24T06:38:33;3.58;;;2.53;;
17943;SDS011;9097;47.028;15.444;2022-07-24T06:41:36;4.20;;;2.58;;
17943;SDS011;9097;47.028;15.444;2022-07-24T06:44:40;2.78;;;2.13;;
17943;SDS011;9097;47.028;15.444;2022-07-24T06:47:45;4.97;;;2.22;;
17943;SDS011;9097;47.028;15.444;2022-07-24T06:50:49;5.10;;;3.05;;
17943;SDS011;9097;47.028;15.444;2022-07-24T06:53:52;6.05;;;3.10;;
17943;SDS011;9097;47.028;15.444;2022-07-24T06:57:00;4.22;;;2.92;;
17943;SDS011;9097;47.028;15.444;2022-07-24T07:00:06;3.90;;;2.45;;
17943;SDS011;9097;47.028;15.444;2022-07-24T07:16:36;4.88;;;2.63;;
17943;SDS011;9097;47.028;15.444;2022-07-24T07:19:40;5.05;;;3.03;;
17943;SDS011;9097;47.028;15.444;2022-07-24T07:26:04;3.70;;;2.60;;
17943;SDS011;9097;47.028;15.444;2022-07-24T07:29:07;5.10;;;2.83;;
17943;SDS011;9097;47.028;15.444;2022-07-24T07:32:11;5.88;;;3.17;;
17943;SDS011;9097;47.028;15.444;2022-07-24T07:35:14;5.47;;;3.67;;
17943;SDS011;9097;47.028;15.444;2022-07-24T07:41:39;4.75;;;3.38;;
17943;SDS011;9097;47.028;15.444;2022-07-24T07:44:42;6.35;;;3.65;;
17943;SDS011;9097;47.028;15.444;2022-07-24T07:48:01;4.88;;;3.10;;
17943;SDS011;9097;47.028;15.444;2022-07-24T07:51:03;6.45;;;3.05;;
17943;SDS011;9097;47.028;15.444;2022-07-24T07:57:25;5.05;;;3.08;;
17943;SDS011;9097;47.028;15.444;2022-07-24T08:00:27;3.63;;;3.22;;
17943;SDS011;9097;47.028;15.444;2022-07-24T08:03:33;3.50;;;3.10;;
17943;SDS011;9097;47.028;15.444;2022-07-24T08:06:48;3.85;;;2.75;;
17943;SDS011;9097;47.028;15.444;2022-07-24T08:09:53;5.15;;;2.78;;
17943;SDS011;9097;47.028;15.444;2022-07-24T08:12:57;4.03;;;3.47;;
17943;SDS011;9097;47.028;15.444;2022-07-24T08:15:59;4.63;;;2.90;;
17943;SDS011;9097;47.028;15.444;2022-07-24T08:19:06;4.57;;;3.10;;
17943;SDS011;9097;47.028;15.444;2022-07-24T08:22:08;5.38;;;3.40;;
17943;SDS011;9097;47.028;15.444;2022-07-24T08:25:13;4.28;;;3.25;;
17943;SDS011;9097;47.028;15.444;2022-07-24T08:28:16;4.40;;;3.05;;
17943;SDS011;9097;47.028;15.444;2022-07-24T08:31:19;4.32;;;3.25;;
17943;SDS011;9097;47.028;15.444;2022-07-24T08:34:23;5.85;;;3.67;;
17943;SDS011;9097;47.028;15.444;2022-07-24T08:37:26;3.53;;;2.70;;
17943;SDS011;9097;47.028;15.444;2022-07-24T08:40:32;4.18;;;3.53;;
17943;SDS011;9097;47.028;15.444;2022-07-24T08:43:51;3.83;;;2.92;;
17943;SDS011;9097;47.028;15.444;2022-07-24T08:46:54;3.97;;;3.58;;
17943;SDS011;9097;47.028;15.444;2022-07-24T08:50:01;4.55;;;3.33;;
17943;SDS011;9097;47.028;15.444;2022-07-24T08:53:04;4.53;;;3.38;;
17943;SDS011;9097;47.028;15.444;2022-07-24T08:56:07;4.55;;;3.33;;
17943;SDS011;9097;47.028;15.444;2022-07-24T08:59:17;6.78;;;3.05;;
17943;SDS011;9097;47.028;15.444;2022-07-24T09:05:32;4.63;;;3.42;;
17943;SDS011;9097;47.028;15.444;2022-07-24T09:08:37;5.00;;;3.38;;
17943;SDS011;9097;47.028;15.444;2022-07-24T09:11:42;5.00;;;3.78;;
17943;SDS011;9097;47.028;15.444;2022-07-24T09:14:45;3.75;;;2.83;;
17943;SDS011;9097;47.028;15.444;2022-07-24T09:17:49;4.97;;;3.30;;
17943;SDS011;9097;47.028;15.444;2022-07-24T09:20:54;6.93;;;2.78;;
17943;SDS011;9097;47.028;15.444;2022-07-24T09:23:57;4.88;;;3.13;;
17943;SDS011;9097;47.028;15.444;2022-07-24T09:27:09;4.25;;;3.60;;
17943;SDS011;9097;47.028;15.444;2022-07-24T09:30:25;3.80;;;3.08;;
17943;SDS011;9097;47.028;15.444;2022-07-24T09:33:30;5.72;;;3.47;;
17943;SDS011;9097;47.028;15.444;2022-07-24T09:36:41;5.25;;;3.55;;
17943;SDS011;9097;47.028;15.444;2022-07-24T09:39:46;4.82;;;3.33;;
17943;SDS011;9097;47.028;15.444;2022-07-24T09:42:49;5.03;;;3.80;;
17943;SDS011;9097;47.028;15.444;2022-07-24T09:45:54;4.43;;;3.00;;
17943;SDS011;9097;47.028;15.444;2022-07-24T09:48:57;4.40;;;3.33;;
17943;SDS011;9097;47.028;15.444;2022-07-24T09:52:10;4.07;;;3.22;;
17943;SDS011;9097;47.028;15.444;2022-07-24T09:55:24;6.20;;;3.63;;
17943;SDS011;9097;47.028;15.444;2022-07-24T09:58:29;4.43;;;2.97;;
17943;SDS011;9097;47.028;15.444;2022-07-24T10:01:34;5.30;;;4.32;;
17943;SDS011;9097;47.028;15.444;2022-07-24T10:04:42;6.65;;;3.85;;
17943;SDS011;9097;47.028;15.444;2022-07-24T10:07:51;4.65;;;3.70;;
17943;SDS011;9097;47.028;15.444;2022-07-24T10:10:58;4.82;;;3.83;;
17943;SDS011;9097;47.028;15.444;2022-07-24T10:14:03;5.80;;;3.92;;
17943;SDS011;9097;47.028;15.444;2022-07-24T10:17:06;6.93;;;4.22;;
17943;SDS011;9097;47.028;15.444;2022-07-24T10:20:10;7.03;;;3.88;;
17943;SDS011;9097;47.028;15.444;2022-07-24T10:23:24;6.30;;;3.70;;
17943;SDS011;9097;47.028;15.444;2022-07-24T10:26:31;4.68;;;2.83;;
17943;SDS011;9097;47.028;15.444;2022-07-24T10:29:35;4.60;;;3.42;;
17943;SDS011;9097;47.028;15.444;2022-07-24T10:32:39;5.75;;;3.53;;
17943;SDS011;9097;47.028;15.444;2022-07-24T10:35:42;5.32;;;3.45;;
17943;SDS011;9097;47.028;15.444;2022-07-24T10:38:51;3.55;;;3.00;;
17943;SDS011;9097;47.028;15.444;2022-07-24T10:42:00;5.38;;;3.45;;
17943;SDS011;9097;47.028;15.444;2022-07-24T10:48:25;4.50;;;3.47;;
17943;SDS011;9097;47.028;15.444;2022-07-24T10:51:29;6.18;;;4.53;;
17943;SDS011;9097;47.028;15.444;2022-07-24T10:54:34;5.30;;;3.72;;
17943;SDS011;9097;47.028;15.444;2022-07-24T10:57:46;8.13;;;3.67;;
17943;SDS011;9097;47.028;15.444;2022-07-24T11:00:49;4.43;;;3.30;;
17943;SDS011;9097;47.028;15.444;2022-07-24T11:03:52;7.55;;;3.22;;
17943;SDS011;9097;47.028;15.444;2022-07-24T11:06:55;6.22;;;3.53;;
17943;SDS011;9097;47.028;15.444;2022-07-24T11:10:00;5.38;;;3.60;;
17943;SDS011;9097;47.028;15.444;2022-07-24T11:13:18;9.73;;;3.30;;
17943;SDS011;9097;47.028;15.444;2022-07-24T11:16:41;4.88;;;3.70;;
17943;SDS011;9097;47.028;15.444;2022-07-24T11:19:44;6.55;;;3.90;;
17943;SDS011;9097;47.028;15.444;2022-07-24T11:22:48;6.45;;;3.83;;
17943;SDS011;9097;47.028;15.444;2022-07-24T11:25:55;8.18;;;3.58;;
17943;SDS011;9097;47.028;15.444;2022-07-24T11:29:23;9.32;;;3.63;;
17943;SDS011;9097;47.028;15.444;2022-07-24T11:32:27;9.05;;;4.32;;
17943;SDS011;9097;47.028;15.444;2022-07-24T11:35:32;5.80;;;3.63;;
17943;SDS011;9097;47.028;15.444;2022-07-24T11:38:35;4.55;;;3.42;;
17943;SDS011;9097;47.028;15.444;2022-07-24T11:41:44;3.85;;;2.83;;
17943;SDS011;9097;47.028;15.444;2022-07-24T11:44:48;4.72;;;4.20;;
17943;SDS011;9097;47.028;15.444;2022-07-24T11:47:51;5.38;;;4.05;;
17943;SDS011;9097;47.028;15.444;2022-07-24T11:51:02;5.00;;;3.30;;
17943;SDS011;9097;47.028;15.444;2022-07-24T11:54:07;6.75;;;3.42;;
17943;SDS011;9097;47.028;15.444;2022-07-24T11:57:19;5.20;;;3.42;;
17943;SDS011;9097;47.028;15.444;2022-07-24T12:00:23;6.25;;;3.80;;
17943;SDS011;9097;47.028;15.444;2022-07-24T12:03:27;4.75;;;3.22;;
17943;SDS011;9097;47.028;15.444;2022-07-24T12:06:29;4.20;;;3.20;;
17943;SDS011;9097;47.028;15.444;2022-07-24T12:09:32;4.85;;;4.13;;
17943;SDS011;9097;47.028;15.444;2022-07-24T12:12:47;5.40;;;3.60;;
17943;SDS011;9097;47.028;15.444;2022-07-24T12:15:51;5.03;;;3.30;;
17943;SDS011;9097;47.028;15.444;2022-07-24T12:18:53;4.63;;;3.03;;
17943;SDS011;9097;47.028;15.444;2022-07-24T12:22:19;4.90;;;3.30;;
17943;SDS011;9097;47.028;15.444;2022-07-24T12:25:22;7.07;;;3.35;;
17943;SDS011;9097;47.028;15.444;2022-07-24T12:28:26;5.22;;;3.45;;
17943;SDS011;9097;47.028;15.444;2022-07-24T12:31:29;4.85;;;2.95;;
17943;SDS011;9097;47.028;15.444;2022-07-24T12:34:39;5.45;;;3.75;;
17943;SDS011;9097;47.028;15.444;2022-07-24T12:37:45;4.72;;;3.28;;
17943;SDS011;9097;47.028;15.444;2022-07-24T12:40:48;5.35;;;3.90;;
17943;SDS011;9097;47.028;15.444;2022-07-24T12:43:53;5.00;;;3.28;;
17943;SDS011;9097;47.028;15.444;2022-07-24T12:46:58;5.40;;;3.42;;
17943;SDS011;9097;47.028;15.444;2022-07-24T12:50:11;5.15;;;3.88;;
17943;SDS011;9097;47.028;15.444;2022-07-24T12:53:14;4.50;;;2.97;;
17943;SDS011;9097;47.028;15.444;2022-07-24T12:56:19;5.35;;;3.80;;
17943;SDS011;9097;47.028;15.444;2022-07-24T12:59:24;6.50;;;3.63;;
17943;SDS011;9097;47.028;15.444;2022-07-24T13:02:27;3.70;;;2.83;;
17943;SDS011;9097;47.028;15.444;2022-07-24T13:05:36;4.22;;;3.17;;
17943;SDS011;9097;47.028;15.444;2022-07-24T13:08:39;3.30;;;3.00;;
17943;SDS011;9097;47.028;15.444;2022-07-24T13:11:42;4.95;;;3.83;;
17943;SDS011;9097;47.028;15.444;2022-07-24T13:14:47;6.05;;;4.32;;
17943;SDS011;9097;47.028;15.444;2022-07-24T13:17:50;4.45;;;3.20;;
17943;SDS011;9097;47.028;15.444;2022-07-24T13:20:53;3.85;;;3.40;;
17943;SDS011;9097;47.028;15.444;2022-07-24T13:23:55;4.68;;;3.85;;
17943;SDS011;9097;47.028;15.444;2022-07-24T13:27:01;4.75;;;3.50;;
17943;SDS011;9097;47.028;15.444;2022-07-24T13:30:06;4.95;;;4.18;;
17943;SDS011;9097;47.028;15.444;2022-07-24T13:33:09;4.22;;;3.40;;
17943;SDS011;9097;47.028;15.444;2022-07-24T13:36:12;4.40;;;2.85;;
17943;SDS011;9097;47.028;15.444;2022-07-24T13:39:15;5.45;;;3.22;;
17943;SDS011;9097;47.028;15.444;2022-07-24T13:42:21;4.10;;;3.42;;
17943;SDS011;9097;47.028;15.444;2022-07-24T13:45:25;5.43;;;3.35;;
17943;SDS011;9097;47.028;15.444;2022-07-24T13:48:29;5.18;;;3.50;;
17943;SDS011;9097;47.028;15.444;2022-07-24T13:51:32;4.80;;;3.58;;
17943;SDS011;9097;47.028;15.444;2022-07-24T13:54:35;4.70;;;3.47;;
17943;SDS011;9097;47.028;15.444;2022-07-24T13:57:38;3.75;;;3.28;;
17943;SDS011;9097;47.028;15.444;2022-07-24T14:00:42;5.10;;;3.40;;
17943;SDS011;9097;47.028;15.444;2022-07-24T14:03:45;4.32;;;3.40;;
17943;SDS011;9097;47.028;15.444;2022-07-24T14:06:50;5.68;;;3.97;;
17943;SDS011;9097;47.028;15.444;2022-07-24T14:09:53;4.13;;;3.10;;
17943;SDS011;9097;47.028;15.444;2022-07-24T14:12:55;5.75;;;3.63;;
17943;SDS011;9097;47.028;15.444;2022-07-24T14:16:00;3.85;;;3.38;;
17943;SDS011;9097;47.028;15.444;2022-07-24T14:19:04;4.90;;;3.65;;
17943;SDS011;9097;47.028;15.444;2022-07-24T14:22:07;3.47;;;2.88;;
17943;SDS011;9097;47.028;15.444;2022-07-24T14:25:09;4.95;;;3.55;;
17943;SDS011;9097;47.028;15.444;2022-07-24T14:28:12;4.43;;;2.70;;
17943;SDS011;9097;47.028;15.444;2022-07-24T14:31:16;4.03;;;3.28;;
17943;SDS011;9097;47.028;15.444;2022-07-24T14:34:19;4.10;;;3.08;;
17943;SDS011;9097;47.028;15.444;2022-07-24T14:37:23;5.85;;;3.30;;
17943;SDS011;9097;47.028;15.444;2022-07-24T14:40:28;4.97;;;3.85;;
17943;SDS011;9097;47.028;15.444;2022-07-24T14:43:32;4.72;;;3.80;;
17943;SDS011;9097;47.028;15.444;2022-07-24T14:46:36;3.95;;;3.35;;
17943;SDS011;9097;47.028;15.444;2022-07-24T14:49:39;4.95;;;3.60;;
17943;SDS011;9097;47.028;15.444;2022-07-24T14:52:41;5.72;;;3.65;;
17943;SDS011;9097;47.028;15.444;2022-07-24T14:55:44;4.95;;;3.65;;
17943;SDS011;9097;47.028;15.444;2022-07-24T14:58:47;4.15;;;3.75;;
17943;SDS011;9097;47.028;15.444;2022-07-24T15:01:51;5.80;;;3.83;;
17943;SDS011;9097;47.028;15.444;2022-07-24T15:04:54;7.00;;;4.20;;
17943;SDS011;9097;47.028;15.444;2022-07-24T15:07:57;5.80;;;3.85;;
17943;SDS011;9097;47.028;15.444;2022-07-24T15:11:00;5.40;;;3.83;;
17943;SDS011;9097;47.028;15.444;2022-07-24T15:14:03;4.53;;;3.33;;
17943;SDS011;9097;47.028;15.444;2022-07-24T15:17:07;4.13;;;3.33;;
17943;SDS011;9097;47.028;15.444;2022-07-24T15:20:10;7.57;;;4.75;;
17943;SDS011;9097;47.028;15.444;2022-07-24T15:23:13;6.30;;;3.78;;
17943;SDS011;9097;47.028;15.444;2022-07-24T15:26:16;5.45;;;3.90;;
17943;SDS011;9097;47.028;15.444;2022-07-24T15:29:19;4.25;;;3.30;;
17943;SDS011;9097;47.028;15.444;2022-07-24T15:32:23;5.72;;;4.78;;
17943;SDS011;9097;47.028;15.444;2022-07-24T15:35:27;4.75;;;3.85;;
17943;SDS011;9097;47.028;15.444;2022-07-24T15:38:30;5.78;;;4.20;;
17943;SDS011;9097;47.028;15.444;2022-07-24T15:41:34;2.95;;;2.65;;
17943;SDS011;9097;47.028;15.444;2022-07-24T15:44:37;5.30;;;4.15;;
17943;SDS011;9097;47.028;15.444;2022-07-24T15:47:42;5.55;;;3.70;;
17943;SDS011;9097;47.028;15.444;2022-07-24T15:50:45;6.80;;;4.20;;
17943;SDS011;9097;47.028;15.444;2022-07-24T15:53:49;7.20;;;4.75;;
17943;SDS011;9097;47.028;15.444;2022-07-24T15:56:52;4.88;;;3.80;;
17943;SDS011;9097;47.028;15.444;2022-07-24T15:59:55;8.68;;;5.15;;
17943;SDS011;9097;47.028;15.444;2022-07-24T16:02:59;5.93;;;3.80;;
17943;SDS011;9097;47.028;15.444;2022-07-24T16:06:02;6.28;;;4.15;;
17943;SDS011;9097;47.028;15.444;2022-07-24T16:09:05;10.13;;;4.90;;
17943;SDS011;9097;47.028;15.444;2022-07-24T16:12:08;4.78;;;3.95;;
17943;SDS011;9097;47.028;15.444;2022-07-24T16:15:13;9.45;;;3.60;;
17943;SDS011;9097;47.028;15.444;2022-07-24T16:18:18;4.75;;;3.80;;
17943;SDS011;9097;47.028;15.444;2022-07-24T16:21:21;5.10;;;3.72;;
17943;SDS011;9097;47.028;15.444;2022-07-24T16:24:24;5.75;;;3.83;;
17943;SDS011;9097;47.028;15.444;2022-07-24T16:27:28;4.55;;;3.90;;
17943;SDS011;9097;47.028;15.444;2022-07-24T16:30:31;5.47;;;3.85;;
17943;SDS011;9097;47.028;15.444;2022-07-24T16:33:35;4.82;;;3.47;;
17943;SDS011;9097;47.028;15.444;2022-07-24T16:36:38;5.47;;;3.88;;
17943;SDS011;9097;47.028;15.444;2022-07-24T16:39:41;4.57;;;3.67;;
17943;SDS011;9097;47.028;15.444;2022-07-24T16:42:44;4.15;;;3.58;;
17943;SDS011;9097;47.028;15.444;2022-07-24T16:45:54;5.63;;;4.40;;
17943;SDS011;9097;47.028;15.444;2022-07-24T16:48:59;9.05;;;4.70;;
17943;SDS011;9097;47.028;15.444;2022-07-24T16:52:02;7.20;;;4.28;;
17943;SDS011;9097;47.028;15.444;2022-07-24T16:55:05;6.15;;;4.13;;
17943;SDS011;9097;47.028;15.444;2022-07-24T16:58:08;5.28;;;4.25;;
17943;SDS011;9097;47.028;15.444;2022-07-24T17:01:11;4.45;;;3.63;;
17943;SDS011;9097;47.028;15.444;2022-07-24T17:04:16;4.95;;;3.33;;
17943;SDS011;9097;47.028;15.444;2022-07-24T17:07:19;5.70;;;3.80;;
17943;SDS011;9097;47.028;15.444;2022-07-24T17:10:22;6.22;;;3.60;;
17943;SDS011;9097;47.028;15.444;2022-07-24T17:13:25;5.22;;;4.03;;
17943;SDS011;9097;47.028;15.444;2022-07-24T17:16:29;3.58;;;3.28;;
17943;SDS011;9097;47.028;15.444;2022-07-24T17:19:33;6.15;;;3.63;;
17943;SDS011;9097;47.028;15.444;2022-07-24T17:22:35;5.40;;;3.80;;
17943;SDS011;9097;47.028;15.444;2022-07-24T17:25:38;5.32;;;3.85;;
17943;SDS011;9097;47.028;15.444;2022-07-24T17:28:41;5.25;;;3.70;;
17943;SDS011;9097;47.028;15.444;2022-07-24T17:31:44;4.57;;;3.75;;
17943;SDS011;9097;47.028;15.444;2022-07-24T17:34:48;6.90;;;4.40;;
17943;SDS011;9097;47.028;15.444;2022-07-24T17:37:52;6.75;;;4.47;;
17943;SDS011;9097;47.028;15.444;2022-07-24T17:40:55;4.47;;;3.85;;
17943;SDS011;9097;47.028;15.444;2022-07-24T17:43:58;4.97;;;3.85;;
17943;SDS011;9097;47.028;15.444;2022-07-24T17:47:01;6.38;;;4.60;;
17943;SDS011;9097;47.028;15.444;2022-07-24T17:50:07;5.80;;;4.18;;
17943;SDS011;9097;47.028;15.444;2022-07-24T17:53:11;6.00;;;3.90;;
17943;SDS011;9097;47.028;15.444;2022-07-24T17:56:14;5.68;;;4.07;;
17943;SDS011;9097;47.028;15.444;2022-07-24T17:59:16;20.23;;;10.02;;
17943;SDS011;9097;47.028;15.444;2022-07-24T18:02:19;51.88;;;23.90;;
17943;SDS011;9097;47.028;15.444;2022-07-24T18:05:23;79.78;;;39.78;;
17943;SDS011;9097;47.028;15.444;2022-07-24T18:08:26;61.00;;;30.77;;
17943;SDS011;9097;47.028;15.444;2022-07-24T18:11:29;33.90;;;15.70;;
17943;SDS011;9097;47.028;15.444;2022-07-24T18:14:33;15.95;;;8.10;;
17943;SDS011;9097;47.028;15.444;2022-07-24T18:17:36;9.52;;;5.25;;
17943;SDS011;9097;47.028;15.444;2022-07-24T18:20:40;5.80;;;4.45;;
17943;SDS011;9097;47.028;15.444;2022-07-24T18:23:43;9.45;;;5.35;;
17943;SDS011;9097;47.028;15.444;2022-07-24T18:26:46;9.50;;;5.47;;
17943;SDS011;9097;47.028;15.444;2022-07-24T18:29:48;11.27;;;6.80;;
17943;SDS011;9097;47.028;15.444;2022-07-24T18:32:52;9.85;;;5.57;;
17943;SDS011;9097;47.028;15.444;2022-07-24T18:35:56;7.93;;;5.38;;
17943;SDS011;9097;47.028;15.444;2022-07-24T18:38:59;6.45;;;4.75;;
17943;SDS011;9097;47.028;15.444;2022-07-24T18:42:01;5.95;;;4.40;;
17943;SDS011;9097;47.028;15.444;2022-07-24T18:45:06;7.10;;;4.78;;
17943;SDS011;9097;47.028;15.444;2022-07-24T18:48:17;5.85;;;4.55;;
17943;SDS011;9097;47.028;15.444;2022-07-24T18:51:23;5.90;;;4.55;;
17943;SDS011;9097;47.028;15.444;2022-07-24T18:54:29;6.47;;;4.15;;
17943;SDS011;9097;47.028;15.444;2022-07-24T18:57:31;7.30;;;5.03;;
17943;SDS011;9097;47.028;15.444;2022-07-24T19:00:34;5.05;;;3.65;;
17943;SDS011;9097;47.028;15.444;2022-07-24T19:03:36;6.22;;;4.65;;